Time;durP1;ratioP1;P1;durP2;ratioP2;P2;SDS_P1;SDS_P2;PMS_P1;PMS_P2;Temp;Humidity;BMP_temperature;BMP_pressure;BME280_temperature;BME280_humidity;BME280_pressure;Samples;Min_cycle;Max_cycle;Signal;HPM_P1;HPM_P2
2022/02/26 00:02:24;;;;;;;17.63;3.20;;;5.00;99.90;;;;;;5055677;28;20463;-71
2022/02/26 00:04:51;;;;;;;22.50;4.73;;;5.00;99.90;;;;;;5056016;28;20459;-70
2022/02/26 00:07:18;;;;;;;14.60;3.87;;;5.00;99.90;;;;;;5055662;28;20550;-70
2022/02/26 00:09:45;;;;;;;15.33;3.70;;;5.00;99.90;;;;;;5055244;28;20483;-70
2022/02/26 00:12:11;;;;;;;15.63;3.87;;;5.00;99.90;;;;;;5055578;28;20455;-72
2022/02/26 00:14:41;;;;;;;16.00;3.70;;;5.00;99.90;;;;;;5055212;28;20942;-70
2022/02/26 00:17:08;;;;;;;16.13;3.90;;;5.00;99.90;;;;;;5055217;28;20459;-72
2022/02/26 00:19:36;;;;;;;20.80;3.27;;;5.00;99.90;;;;;;5055033;28;20451;-71
2022/02/26 00:22:04;;;;;;;28.03;4.43;;;4.90;99.90;;;;;;5054846;28;20939;-71
2022/02/26 00:24:30;;;;;;;19.93;5.20;;;4.90;99.90;;;;;;5055072;28;20498;-72
2022/02/26 00:26:58;;;;;;;13.03;3.43;;;4.90;99.90;;;;;;5055390;28;20466;-71
2022/02/26 00:29:24;;;;;;;17.30;5.70;;;4.90;99.90;;;;;;5055177;28;20490;-70
2022/02/26 00:31:51;;;;;;;17.93;3.47;;;4.90;99.90;;;;;;5055100;28;20923;-71
2022/02/26 00:34:18;;;;;;;16.93;4.50;;;4.90;99.90;;;;;;5054778;28;20470;-71
2022/02/26 00:36:46;;;;;;;20.50;4.30;;;4.90;99.90;;;;;;5054982;28;20521;-71
2022/02/26 00:39:13;;;;;;;26.67;4.83;;;4.90;99.90;;;;;;5054944;28;20451;-71
2022/02/26 00:41:39;;;;;;;24.37;4.37;;;4.90;99.90;;;;;;5054856;28;20813;-70
2022/02/26 00:44:06;;;;;;;12.57;3.00;;;4.90;99.90;;;;;;5055017;28;20459;-70
2022/02/26 00:46:33;;;;;;;15.43;3.37;;;4.90;99.90;;;;;;5054666;28;20455;-71
2022/02/26 00:51:45;;;;;;;25.60;3.70;;;4.90;99.90;;;;;;5058496;28;20892;-71
2022/02/26 00:54:12;;;;;;;17.33;3.53;;;4.90;99.90;;;;;;5059618;28;20455;-71
2022/02/26 00:56:41;;;;;;;17.90;3.53;;;4.90;99.90;;;;;;5058136;28;20463;-72
2022/02/26 00:59:08;;;;;;;17.87;3.43;;;4.90;99.90;;;;;;5055357;28;20878;-72
2022/02/26 01:01:35;;;;;;;15.30;3.40;;;4.90;99.90;;;;;;5057158;28;20462;-71
2022/02/26 01:04:02;;;;;;;23.10;4.10;;;4.90;99.90;;;;;;5059119;28;20532;-72
2022/02/26 01:06:28;;;;;;;18.23;3.70;;;4.90;99.90;;;;;;5059306;28;20463;-71
2022/02/26 01:08:56;;;;;;;14.57;4.30;;;4.90;99.90;;;;;;5059838;28;20974;-71
2022/02/26 01:11:23;;;;;;;14.83;3.37;;;4.90;99.90;;;;;;5059229;28;20455;-71
2022/02/26 01:13:50;;;;;;;18.00;3.93;;;4.90;99.90;;;;;;5060882;28;20466;-71
2022/02/26 01:16:17;;;;;;;17.20;4.40;;;4.90;99.90;;;;;;5064846;28;20458;-71
2022/02/26 01:18:43;;;;;;;15.00;3.43;;;4.90;99.90;;;;;;5061926;28;20447;-71
2022/02/26 01:21:10;;;;;;;22.63;3.83;;;4.90;99.90;;;;;;5060576;28;20451;-71
2022/02/26 01:23:37;;;;;;;20.13;3.60;;;4.90;99.90;;;;;;5059156;28;20827;-71
2022/02/26 01:26:05;;;;;;;16.03;3.37;;;4.90;99.90;;;;;;5059249;28;20830;-71
2022/02/26 01:28:32;;;;;;;22.33;4.73;;;4.90;99.90;;;;;;5058647;28;20474;-71
2022/02/26 01:31:00;;;;;;;14.53;3.77;;;4.90;99.90;;;;;;5058289;28;20459;-71
2022/02/26 01:33:27;;;;;;;27.00;3.97;;;4.90;99.90;;;;;;5058916;28;20763;-71
2022/02/26 01:35:54;;;;;;;15.97;3.43;;;4.90;99.90;;;;;;5058474;28;20458;-71
2022/02/26 01:38:20;;;;;;;13.10;3.80;;;4.90;99.90;;;;;;5059005;28;20815;-71
2022/02/26 01:40:47;;;;;;;25.43;4.50;;;4.90;99.90;;;;;;5058165;28;20495;-71
2022/02/26 01:43:15;;;;;;;17.27;3.70;;;4.90;99.90;;;;;;5058868;28;20784;-71
2022/02/26 01:45:42;;;;;;;11.70;3.40;;;4.90;99.90;;;;;;5058209;28;20458;-71
2022/02/26 01:48:09;;;;;;;25.60;4.13;;;5.00;99.90;;;;;;5058266;28;20482;-71
2022/02/26 01:50:36;;;;;;;13.70;4.10;;;5.00;99.90;;;;;;5058625;28;20465;-71
2022/02/26 01:53:04;;;;;;;20.03;3.70;;;5.00;99.90;;;;;;5058275;28;20463;-72
2022/02/26 01:55:31;;;;;;;17.93;4.87;;;5.00;99.90;;;;;;5058154;28;20756;-72
2022/02/26 01:57:58;;;;;;;16.80;3.90;;;5.00;99.90;;;;;;5058975;28;20756;-71
2022/02/26 02:00:27;;;;;;;23.20;4.00;;;5.00;99.90;;;;;;5057956;28;20524;-71
2022/02/26 02:02:54;;;;;;;25.27;4.67;;;4.90;99.90;;;;;;5058161;28;20463;-72
2022/02/26 02:05:21;;;;;;;23.20;5.00;;;4.90;99.90;;;;;;5060000;28;20516;-71
2022/02/26 02:07:48;;;;;;;25.37;5.60;;;5.00;99.90;;;;;;5062359;28;20463;-71
2022/02/26 02:10:15;;;;;;;21.90;5.13;;;5.00;99.90;;;;;;5062386;28;20479;-70
2022/02/26 02:12:44;;;;;;;26.93;4.10;;;5.00;99.90;;;;;;5060775;28;20773;-72
2022/02/26 02:15:11;;;;;;;15.70;4.13;;;5.00;99.90;;;;;;5061381;28;20516;-71
2022/02/26 02:17:41;;;;;;;22.93;4.40;;;4.90;99.90;;;;;;5061908;28;20466;-72
2022/02/26 02:20:09;;;;;;;19.83;4.57;;;4.90;99.90;;;;;;5061852;28;20451;-71
2022/02/26 02:22:37;;;;;;;15.50;3.60;;;4.90;99.90;;;;;;5062154;28;20451;-72
2022/02/26 02:25:05;;;;;;;21.27;4.10;;;5.00;99.90;;;;;;5058624;28;20463;-72
2022/02/26 02:27:31;;;;;;;15.57;3.47;;;5.00;99.90;;;;;;5057888;28;20454;-72
2022/02/26 02:29:58;;;;;;;23.37;5.20;;;5.00;99.90;;;;;;5057739;28;20479;-73
2022/02/26 02:32:25;;;;;;;26.23;5.10;;;5.00;99.90;;;;;;5057360;28;20471;-71
2022/02/26 02:34:51;;;;;;;18.90;4.30;;;5.00;99.90;;;;;;5057376;28;20455;-71
2022/02/26 02:37:18;;;;;;;22.27;4.13;;;5.00;99.90;;;;;;5057454;28;20813;-72
2022/02/26 02:39:46;;;;;;;16.30;5.67;;;5.00;99.90;;;;;;5057556;28;20452;-71
2022/02/26 02:42:13;;;;;;;17.00;3.23;;;5.00;99.90;;;;;;5056966;28;20866;-74
2022/02/26 02:44:40;;;;;;;22.53;3.63;;;4.90;99.90;;;;;;5057655;28;20462;-72
2022/02/26 02:47:07;;;;;;;16.40;3.57;;;4.90;99.90;;;;;;5057606;28;20796;-72
2022/02/26 02:49:33;;;;;;;19.20;4.10;;;4.90;99.90;;;;;;5057160;28;20493;-70
2022/02/26 02:52:01;;;;;;;22.07;4.70;;;5.00;99.90;;;;;;5057131;28;20485;-71
2022/02/26 02:54:28;;;;;;;24.47;5.70;;;5.00;99.90;;;;;;5057301;28;20459;-72
2022/02/26 02:56:56;;;;;;;16.90;3.50;;;5.00;99.90;;;;;;5056831;28;20462;-72
2022/02/26 02:59:24;;;;;;;19.60;4.63;;;4.90;99.90;;;;;;5057090;28;20517;-71
2022/02/26 03:01:50;;;;;;;21.17;3.33;;;4.90;99.90;;;;;;5056932;28;20459;-72
2022/02/26 03:04:17;;;;;;;23.70;5.33;;;5.00;99.90;;;;;;5056875;28;20505;-72
2022/02/26 03:06:44;;;;;;;17.13;4.37;;;5.00;99.90;;;;;;5056731;28;20466;-72
2022/02/26 03:09:11;;;;;;;22.97;4.57;;;4.90;99.90;;;;;;5056745;28;20505;-71
2022/02/26 03:11:37;;;;;;;18.60;4.67;;;5.00;99.90;;;;;;5056474;28;20466;-71
2022/02/26 03:14:07;;;;;;;19.90;5.00;;;4.90;99.90;;;;;;5056798;28;20466;-72
2022/02/26 03:16:34;;;;;;;20.77;5.10;;;5.00;99.90;;;;;;5056623;28;20459;-72
2022/02/26 03:19:00;;;;;;;10.67;3.30;;;4.90;99.90;;;;;;5056682;28;20451;-73
2022/02/26 03:21:27;;;;;;;15.17;4.20;;;4.90;99.90;;;;;;5055992;28;20904;-71
2022/02/26 03:23:54;;;;;;;19.30;3.60;;;4.90;99.90;;;;;;5055999;28;20493;-71
2022/02/26 03:26:20;;;;;;;20.87;4.37;;;4.90;99.90;;;;;;5056464;28;20486;-71
2022/02/26 03:28:47;;;;;;;25.30;4.97;;;4.90;99.90;;;;;;5056329;28;20458;-72
2022/02/26 03:31:15;;;;;;;16.63;4.67;;;4.90;99.90;;;;;;5056606;28;20460;-71
2022/02/26 03:33:45;;;;;;;19.97;4.60;;;4.90;99.90;;;;;;5056286;28;20907;-71
2022/02/26 03:36:12;;;;;;;18.60;4.40;;;4.90;99.90;;;;;;5056359;28;20565;-71
2022/02/26 03:38:42;;;;;;;18.70;4.40;;;4.90;99.90;;;;;;5056014;28;20466;-72
2022/02/26 03:41:09;;;;;;;13.13;3.97;;;4.90;99.90;;;;;;5055902;28;20487;-71
2022/02/26 03:43:36;;;;;;;20.90;5.23;;;5.00;99.90;;;;;;5056823;28;20569;-71
2022/02/26 03:46:02;;;;;;;16.30;3.70;;;5.00;99.90;;;;;;5056128;28;20911;-71
2022/02/26 03:48:31;;;;;;;23.17;4.40;;;5.00;99.90;;;;;;5056090;28;20465;-73
2022/02/26 03:51:04;;;;;;;20.10;4.40;;;4.90;99.90;;;;;;5055685;28;20485;-71
2022/02/26 03:53:30;;;;;;;14.70;4.03;;;5.00;99.90;;;;;;5055910;28;20451;-72
2022/02/26 03:55:57;;;;;;;15.80;4.00;;;5.00;99.90;;;;;;5056039;28;20463;-70
2022/02/26 03:58:24;;;;;;;22.70;4.80;;;5.00;99.90;;;;;;5056086;28;20487;-71
2022/02/26 04:00:51;;;;;;;18.80;4.50;;;4.90;99.90;;;;;;5055808;28;20462;-72
2022/02/26 04:03:18;;;;;;;18.60;3.70;;;4.90;99.90;;;;;;5055987;28;20800;-70
2022/02/26 04:05:46;;;;;;;19.97;4.60;;;4.80;99.90;;;;;;5056463;28;20462;-72
2022/02/26 04:08:13;;;;;;;28.43;4.37;;;4.80;99.90;;;;;;5055835;28;20452;-71
2022/02/26 04:10:39;;;;;;;34.80;4.90;;;4.80;99.90;;;;;;5056028;28;20479;-71
2022/02/26 04:13:06;;;;;;;14.77;3.83;;;4.80;99.90;;;;;;5055527;28;20820;-71
2022/02/26 04:15:33;;;;;;;15.53;4.10;;;4.70;99.90;;;;;;5055536;28;20459;-70
2022/02/26 04:17:59;;;;;;;20.67;4.70;;;4.70;99.90;;;;;;5055414;28;20532;-72
2022/02/26 04:20:26;;;;;;;16.30;4.13;;;4.60;99.90;;;;;;5055436;28;20784;-70
2022/02/26 04:22:54;;;;;;;22.83;4.60;;;4.60;99.90;;;;;;5055375;28;20463;-71
2022/02/26 04:25:21;;;;;;;22.97;4.93;;;4.60;99.90;;;;;;5055654;28;20458;-71
2022/02/26 04:27:48;;;;;;;12.47;3.83;;;4.60;99.90;;;;;;5055552;28;20751;-71
2022/02/26 04:30:15;;;;;;;15.87;3.73;;;4.60;99.90;;;;;;5057891;28;20479;-71
2022/02/26 04:32:43;;;;;;;17.93;4.17;;;4.60;99.90;;;;;;5058400;28;20859;-71
2022/02/26 04:35:10;;;;;;;17.80;4.90;;;4.70;99.90;;;;;;5058120;28;20451;-71
2022/02/26 04:37:37;;;;;;;16.87;4.30;;;4.60;99.90;;;;;;5054777;28;20528;-71
2022/02/26 04:40:07;;;;;;;30.23;4.67;;;4.60;99.90;;;;;;5055387;28;20447;-71
2022/02/26 04:42:34;;;;;;;30.47;4.83;;;4.60;99.90;;;;;;5054977;28;20557;-70
2022/02/26 04:45:00;;;;;;;15.03;3.90;;;4.60;99.90;;;;;;5054992;28;20538;-71
2022/02/26 04:47:27;;;;;;;16.03;3.80;;;4.60;99.90;;;;;;5055569;28;20463;-71
2022/02/26 04:49:54;;;;;;;10.47;3.83;;;4.60;99.90;;;;;;5055310;28;20487;-70
2022/02/26 04:52:20;;;;;;;17.30;4.20;;;4.70;99.90;;;;;;5054923;28;20454;-71
2022/02/26 04:54:47;;;;;;;16.83;3.50;;;4.70;99.90;;;;;;5055117;28;20830;-73
2022/02/26 04:57:15;;;;;;;25.43;4.03;;;4.70;99.90;;;;;;5055054;28;20454;-72
2022/02/26 04:59:42;;;;;;;22.57;3.87;;;4.70;99.90;;;;;;5055416;28;20539;-71
2022/02/26 05:02:10;;;;;;;16.17;4.10;;;4.70;99.90;;;;;;5057107;28;20454;-71
2022/02/26 05:04:36;;;;;;;11.93;3.80;;;4.80;99.90;;;;;;5056553;28;20964;-71
2022/02/26 05:07:03;;;;;;;15.27;3.17;;;4.80;99.90;;;;;;5055161;28;20458;-71
2022/02/26 05:09:30;;;;;;;12.27;3.70;;;4.80;99.90;;;;;;5055061;28;20536;-71
2022/02/26 05:11:57;;;;;;;16.93;3.70;;;4.90;99.90;;;;;;5055031;28;20466;-70
2022/02/26 05:14:25;;;;;;;16.77;3.43;;;4.90;99.90;;;;;;5054975;28;20462;-71
2022/02/26 05:16:52;;;;;;;14.87;5.20;;;5.00;99.90;;;;;;5054767;28;20791;-72
2022/02/26 05:19:19;;;;;;;22.80;4.43;;;5.00;99.90;;;;;;5054683;28;20455;-70
2022/02/26 05:21:45;;;;;;;21.60;5.00;;;5.00;99.90;;;;;;5054891;28;20457;-71
2022/02/26 05:24:12;;;;;;;10.07;3.57;;;5.10;99.90;;;;;;5054652;28;20812;-71
2022/02/26 05:26:39;;;;;;;12.67;4.63;;;5.10;99.90;;;;;;5055051;28;20459;-71
2022/02/26 05:29:05;;;;;;;22.90;4.67;;;5.10;99.90;;;;;;5054993;28;20455;-70
2022/02/26 05:31:35;;;;;;;14.90;4.47;;;5.20;99.90;;;;;;5054877;28;20479;-70
2022/02/26 05:34:02;;;;;;;23.20;4.40;;;5.20;99.90;;;;;;5056219;28;20459;-70
2022/02/26 05:36:29;;;;;;;23.90;3.80;;;5.20;99.90;;;;;;5058160;28;20520;-70
2022/02/26 05:38:56;;;;;;;18.20;4.30;;;5.10;99.90;;;;;;5058650;28;20462;-71
2022/02/26 05:41:23;;;;;;;18.43;4.43;;;5.10;99.90;;;;;;5056896;28;20482;-70
2022/02/26 05:43:50;;;;;;;26.17;4.30;;;5.10;99.90;;;;;;5057981;28;20823;-70
2022/02/26 05:46:17;;;;;;;17.40;4.33;;;5.20;99.90;;;;;;5060960;28;20509;-72
2022/02/26 05:48:45;;;;;;;20.70;3.90;;;5.20;99.90;;;;;;5065745;28;20481;-70
2022/02/26 05:51:12;;;;;;;19.60;4.20;;;5.20;99.90;;;;;;5065563;28;20490;-71
2022/02/26 05:53:38;;;;;;;21.23;4.80;;;5.20;99.90;;;;;;5061675;28;20454;-71
2022/02/26 05:56:05;;;;;;;25.77;3.97;;;5.30;99.90;;;;;;5058367;28;20459;-71
2022/02/26 05:58:32;;;;;;;12.20;4.07;;;5.30;99.90;;;;;;5058122;28;20472;-71
2022/02/26 06:00:59;;;;;;;10.33;3.50;;;5.30;99.90;;;;;;5058239;28;20469;-71
2022/02/26 06:03:26;;;;;;;19.73;4.03;;;5.30;99.90;;;;;;5058290;28;20470;-70
2022/02/26 06:05:54;;;;;;;15.23;3.33;;;5.30;99.90;;;;;;5058216;28;20459;-71
2022/02/26 06:08:20;;;;;;;18.53;4.33;;;5.30;99.90;;;;;;5057960;28;20550;-71
2022/02/26 06:10:47;;;;;;;13.60;3.80;;;5.20;99.90;;;;;;5057728;28;20486;-72
2022/02/26 06:13:14;;;;;;;19.07;4.90;;;5.20;99.90;;;;;;5057660;28;20455;-71
2022/02/26 06:15:41;;;;;;;12.23;3.17;;;5.20;99.90;;;;;;5057391;28;20520;-71
2022/02/26 06:18:07;;;;;;;15.33;3.73;;;5.20;99.90;;;;;;5057766;28;20465;-72
2022/02/26 06:20:34;;;;;;;19.20;3.90;;;5.20;99.90;;;;;;5057387;28;20477;-72
2022/02/26 06:23:03;;;;;;;19.00;6.20;;;5.20;99.90;;;;;;5057268;28;20653;-71
2022/02/26 06:25:30;;;;;;;12.07;3.40;;;5.10;99.90;;;;;;5057554;28;20459;-70
2022/02/26 06:27:57;;;;;;;15.00;3.13;;;5.10;99.90;;;;;;5057143;28;20779;-70
2022/02/26 06:30:26;;;;;;;17.33;3.93;;;5.20;99.90;;;;;;5057099;28;20955;-71
2022/02/26 06:32:53;;;;;;;16.47;3.87;;;5.20;99.90;;;;;;5057364;28;20467;-71
2022/02/26 06:35:20;;;;;;;14.43;3.63;;;5.20;99.90;;;;;;5057354;28;20796;-71
2022/02/26 06:37:46;;;;;;;25.57;5.10;;;5.20;99.90;;;;;;5056973;28;20455;-71
2022/02/26 06:40:14;;;;;;;25.03;3.77;;;5.20;99.90;;;;;;5057291;28;20455;-69
2022/02/26 06:42:41;;;;;;;17.90;3.57;;;5.20;99.90;;;;;;5057214;28;20459;-70
2022/02/26 06:45:09;;;;;;;23.13;4.43;;;5.10;99.90;;;;;;5056497;28;20942;-71
2022/02/26 06:47:35;;;;;;;17.53;5.83;;;5.20;99.90;;;;;;5057056;28;20459;-72
2022/02/26 06:50:03;;;;;;;17.57;4.13;;;5.10;99.90;;;;;;5057033;28;20471;-71
2022/02/26 06:52:32;;;;;;;20.47;4.23;;;5.10;99.90;;;;;;5057019;28;20757;-71
2022/02/26 06:54:59;;;;;;;18.33;3.73;;;5.10;99.90;;;;;;5056693;28;20459;-71
2022/02/26 06:57:27;;;;;;;12.30;3.80;;;5.10;99.90;;;;;;5056932;28;20455;-71
2022/02/26 06:59:53;;;;;;;23.10;3.70;;;5.10;99.90;;;;;;5056240;28;20455;-71
2022/02/26 07:02:20;;;;;;;16.47;4.57;;;5.10;99.90;;;;;;5056550;28;20455;-71
2022/02/26 07:04:47;;;;;;;16.00;4.33;;;5.20;99.90;;;;;;5056772;28;20470;-71
2022/02/26 07:07:14;;;;;;;18.53;3.67;;;5.30;99.90;;;;;;5056747;28;20524;-71
2022/02/26 07:09:41;;;;;;;14.00;3.40;;;5.30;99.90;;;;;;5056537;28;20456;-70
2022/02/26 07:12:09;;;;;;;15.37;3.80;;;5.30;99.90;;;;;;5056183;28;20517;-71
2022/02/26 07:14:37;;;;;;;17.50;3.77;;;5.40;99.90;;;;;;5056805;28;20779;-71
2022/02/26 07:17:04;;;;;;;12.77;3.43;;;5.40;99.90;;;;;;5056350;28;20447;-71
2022/02/26 07:19:31;;;;;;;18.07;3.60;;;5.40;99.90;;;;;;5056858;28;20766;-72
2022/02/26 07:21:59;;;;;;;14.43;3.23;;;5.40;99.90;;;;;;5056440;28;20451;-71
2022/02/26 07:24:26;;;;;;;22.13;3.80;;;5.40;99.90;;;;;;5056422;28;20475;-72
2022/02/26 07:26:53;;;;;;;19.30;5.83;;;5.50;99.90;;;;;;5056408;28;20463;-71
2022/02/26 07:29:19;;;;;;;10.30;3.33;;;5.50;99.90;;;;;;5056434;28;20455;-71
2022/02/26 07:31:47;;;;;;;14.63;3.57;;;5.60;99.90;;;;;;5055886;28;20982;-72
2022/02/26 07:34:14;;;;;;;12.93;3.43;;;5.60;99.90;;;;;;5055903;28;20470;-72
2022/02/26 07:36:41;;;;;;;10.57;2.90;;;5.70;99.90;;;;;;5055897;28;20455;-72
2022/02/26 07:39:08;;;;;;;14.40;4.60;;;5.80;99.90;;;;;;5056044;28;20466;-72
2022/02/26 07:41:35;;;;;;;13.63;3.30;;;5.80;99.90;;;;;;5055422;28;20483;-71
2022/02/26 07:44:02;;;;;;;10.70;3.70;;;5.80;99.90;;;;;;5056051;28;20466;-71
2022/02/26 07:46:28;;;;;;;10.07;3.00;;;5.80;99.90;;;;;;5055664;28;20470;-71
2022/02/26 07:48:57;;;;;;;8.23;2.90;;;5.80;99.90;;;;;;5055706;28;20459;-71
2022/02/26 07:51:25;;;;;;;16.03;3.97;;;5.70;99.90;;;;;;5055420;28;20490;-70
2022/02/26 07:53:52;;;;;;;14.67;3.93;;;5.70;99.90;;;;;;5055849;28;20468;-71
2022/02/26 07:56:19;;;;;;;13.90;2.77;;;5.70;99.90;;;;;;5055379;28;20900;-72
2022/02/26 07:58:46;;;;;;;17.27;3.53;;;5.70;99.90;;;;;;5055515;28;20470;-71
2022/02/26 08:01:13;;;;;;;11.97;2.87;;;5.80;99.90;;;;;;5055720;28;20486;-73
2022/02/26 08:03:39;;;;;;;11.80;3.10;;;5.90;99.90;;;;;;5055680;28;20469;-71
2022/02/26 08:06:07;;;;;;;15.57;3.40;;;5.90;99.90;;;;;;5055715;28;20745;-70
2022/02/26 08:08:34;;;;;;;12.67;4.17;;;5.80;99.90;;;;;;5055687;28;20466;-71
2022/02/26 08:11:01;;;;;;;10.63;3.53;;;5.90;99.90;;;;;;5056022;28;20483;-71
2022/02/26 08:13:28;;;;;;;29.20;12.03;;;5.90;99.90;;;;;;5058576;28;20451;-71
2022/02/26 08:15:55;;;;;;;18.67;4.40;;;6.00;99.90;;;;;;5058821;28;20470;-71
2022/02/26 08:18:21;;;;;;;10.30;2.70;;;6.10;99.90;;;;;;5056273;28;20473;-71
2022/02/26 08:20:49;;;;;;;9.77;3.00;;;6.10;99.90;;;;;;5055533;28;20451;-72
2022/02/26 08:23:17;;;;;;;21.40;3.90;;;6.10;99.90;;;;;;5055592;28;20506;-72
2022/02/26 08:25:44;;;;;;;12.33;3.03;;;6.10;99.90;;;;;;5054973;28;20455;-72
2022/02/26 08:28:11;;;;;;;13.40;3.63;;;6.10;99.90;;;;;;5055457;28;20463;-73
2022/02/26 08:30:37;;;;;;;15.67;3.63;;;6.10;99.90;;;;;;5055327;28;20479;-73
2022/02/26 08:33:04;;;;;;;14.23;4.20;;;6.20;99.90;;;;;;5055675;28;20459;-71
2022/02/26 08:35:31;;;;;;;10.07;3.73;;;6.30;99.90;;;;;;5055733;28;20542;-72
2022/02/26 08:37:58;;;;;;;10.73;4.10;;;6.40;99.90;;;;;;5055621;28;20472;-71
2022/02/26 08:40:26;;;;;;;14.17;4.13;;;6.40;99.90;;;;;;5055015;28;20517;-72
2022/02/26 08:42:52;;;;;;;14.43;3.43;;;6.50;99.90;;;;;;5055288;28;20747;-71
2022/02/26 08:45:19;;;;;;;15.50;6.50;;;6.50;99.90;;;;;;5054871;28;20573;-72
2022/02/26 08:47:46;;;;;;;15.90;5.00;;;6.60;99.90;;;;;;5055138;28;20464;-71
2022/02/26 08:50:16;;;;;;;11.30;3.63;;;6.50;99.90;;;;;;5055052;28;20896;-71
2022/02/26 08:52:43;;;;;;;9.53;2.50;;;6.50;99.90;;;;;;5058177;28;20939;-72
2022/02/26 08:55:11;;;;;;;11.50;3.00;;;6.40;99.90;;;;;;5055923;28;20469;-72
2022/02/26 08:57:39;;;;;;;7.30;3.17;;;6.40;99.90;;;;;;5055035;28;20466;-71
2022/02/26 09:00:09;;;;;;;6.87;2.83;;;6.40;99.90;;;;;;5054522;28;20455;-71
2022/02/26 09:02:36;;;;;;;12.07;2.90;;;6.30;99.90;;;;;;5054730;28;20435;-73
2022/02/26 09:05:03;;;;;;;10.90;2.83;;;6.30;99.90;;;;;;5054922;28;20481;-73
2022/02/26 09:07:30;;;;;;;7.90;2.50;;;6.40;99.90;;;;;;5054876;28;20454;-73
2022/02/26 09:09:57;;;;;;;12.13;3.33;;;6.40;99.90;;;;;;5055011;28;20529;-73
2022/02/26 09:12:24;;;;;;;8.50;2.37;;;6.40;99.90;;;;;;5054766;28;20524;-70
2022/02/26 09:14:52;;;;;;;11.10;2.33;;;6.30;99.90;;;;;;5054923;28;20455;-71
2022/02/26 09:17:19;;;;;;;9.43;3.63;;;6.40;99.90;;;;;;5054488;28;20455;-73
2022/02/26 09:19:46;;;;;;;6.57;2.50;;;6.40;99.90;;;;;;5054982;28;20513;-72
2022/02/26 09:22:12;;;;;;;10.50;6.40;;;6.50;99.90;;;;;;5056258;28;20462;-70
2022/02/26 09:24:39;;;;;;;10.17;3.80;;;6.60;99.90;;;;;;5059442;28;20789;-71
2022/02/26 09:27:06;;;;;;;7.73;2.97;;;6.60;99.90;;;;;;5058336;28;20857;-71
2022/02/26 09:29:33;;;;;;;11.10;3.20;;;6.80;99.90;;;;;;5059018;28;20756;-70
2022/02/26 09:32:01;;;;;;;5.77;2.40;;;6.90;99.90;;;;;;5058453;28;20487;-69
2022/02/26 09:34:28;;;;;;;8.40;2.30;;;6.90;99.90;;;;;;5058357;28;20461;-70
2022/02/26 09:36:55;;;;;;;6.10;2.23;;;6.90;99.90;;;;;;5058507;28;20996;-73
2022/02/26 09:39:23;;;;;;;11.13;3.20;;;6.90;99.90;;;;;;5059235;28;20463;-70
2022/02/26 09:41:50;;;;;;;9.60;3.10;;;6.90;99.90;;;;;;5058590;28;20863;-70
2022/02/26 09:44:17;;;;;;;7.70;3.03;;;6.90;99.90;;;;;;5058727;28;20465;-72
2022/02/26 09:46:45;;;;;;;8.60;2.30;;;6.80;99.90;;;;;;5059734;28;20466;-70
2022/02/26 09:49:13;;;;;;;6.80;2.47;;;6.70;99.90;;;;;;5058324;28;20458;-70
2022/02/26 09:51:41;;;;;;;7.30;2.50;;;6.70;99.90;;;;;;5058048;28;20543;-70
2022/02/26 09:54:09;;;;;;;9.47;2.50;;;6.60;99.90;;;;;;5058001;28;20516;-71
2022/02/26 09:56:36;;;;;;;6.67;2.20;;;6.60;99.90;;;;;;5057910;28;20943;-70
2022/02/26 09:59:03;;;;;;;8.77;2.80;;;6.70;99.90;;;;;;5058302;28;20825;-70
2022/02/26 10:01:30;;;;;;;9.90;3.30;;;6.70;99.90;;;;;;5057777;28;20856;-70
2022/02/26 10:04:07;;;;;;;11.43;6.50;;;6.80;99.90;;;;;;5059575;28;20529;-70
2022/02/26 10:06:35;;;;;;;20.50;11.30;;;6.90;99.90;;;;;;5062844;28;20447;-69
2022/02/26 10:09:08;;;;;;;25.00;11.23;;;7.00;99.90;;;;;;5058522;28;20790;-69
2022/02/26 10:11:37;;;;;;;8.10;3.00;;;7.10;99.90;;;;;;5057508;28;20829;-68
2022/02/26 10:14:06;;;;;;;19.40;12.70;;;7.10;99.90;;;;;;5058045;28;20459;-74
2022/02/26 10:16:48;;;;;;;7.30;2.53;;;7.30;99.90;;;;;;5057007;28;20470;-69
2022/02/26 10:19:23;;;;;;;7.60;2.90;;;7.40;99.90;;;;;;5057082;28;20927;-70
2022/02/26 10:21:52;;;;;;;34.10;16.93;;;7.50;99.90;;;;;;5056970;28;20941;-71
2022/02/26 10:24:19;;;;;;;11.03;4.30;;;7.50;99.90;;;;;;5057160;28;20459;-70
2022/02/26 10:26:49;;;;;;;4.10;2.10;;;7.60;99.90;;;;;;5056802;28;20463;-69
2022/02/26 10:29:17;;;;;;;5.03;2.00;;;7.60;99.90;;;;;;5057004;28;20542;-72
2022/02/26 10:31:45;;;;;;;7.87;2.63;;;7.50;99.90;;;;;;5056842;28;20487;-68
2022/02/26 10:34:32;;;;;;;8.40;3.90;;;7.60;99.90;;;;;;5056234;28;20459;-71
2022/02/26 10:37:07;;;;;;;9.07;3.20;;;7.60;99.90;;;;;;5057109;28;20439;-71
2022/02/26 10:39:36;;;;;;;8.10;3.57;;;7.60;99.90;;;;;;5056775;28;20443;-71
2022/02/26 10:42:03;;;;;;;7.43;4.00;;;7.70;99.90;;;;;;5056611;28;20486;-71
2022/02/26 10:44:32;;;;;;;7.63;3.43;;;7.70;99.90;;;;;;5057079;28;20492;-71
2022/02/26 10:47:07;;;;;;;33.83;17.97;;;7.80;99.90;;;;;;5056422;28;20930;-70
2022/02/26 10:49:34;;;;;;;15.53;6.60;;;7.80;99.90;;;;;;5056796;28;20462;-77
2022/02/26 10:52:08;;;;;;;7.73;3.07;;;7.80;99.90;;;;;;5058060;28;20490;-71
2022/02/26 10:54:35;;;;;;;14.13;5.93;;;7.80;99.90;;;;;;5061089;28;20772;-72
2022/02/26 10:57:04;;;;;;;5.27;3.07;;;7.70;99.90;;;;;;5057427;28;20470;-71
2022/02/26 10:59:33;;;;;;;8.47;3.50;;;7.70;99.90;;;;;;5057326;28;20744;-72
2022/02/26 11:02:02;;;;;;;8.17;3.10;;;7.70;99.90;;;;;;5056391;28;20452;-72
2022/02/26 11:04:29;;;;;;;17.23;3.90;;;7.80;99.90;;;;;;5056282;28;20934;-71
2022/02/26 11:06:56;;;;;;;9.60;3.00;;;7.80;99.90;;;;;;5055992;28;20455;-72
2022/02/26 11:09:25;;;;;;;6.93;3.40;;;7.70;99.90;;;;;;5056345;28;20467;-72
2022/02/26 11:11:52;;;;;;;10.90;4.77;;;7.70;99.90;;;;;;5056574;28;20586;-72
2022/02/26 11:14:21;;;;;;;65.93;40.20;;;7.80;99.90;;;;;;5058622;28;20459;-71
2022/02/26 11:16:50;;;;;;;8.93;4.03;;;7.90;99.90;;;;;;5058884;28;20455;-70
2022/02/26 11:19:19;;;;;;;17.63;4.20;;;7.90;99.90;;;;;;5060154;28;20776;-69
2022/02/26 11:21:48;;;;;;;9.80;3.17;;;7.90;99.90;;;;;;5060022;28;20451;-71
2022/02/26 11:24:17;;;;;;;4.17;2.57;;;8.00;99.90;;;;;;5059849;28;20486;-69
2022/02/26 11:26:46;;;;;;;10.37;3.40;;;8.00;99.90;;;;;;5056345;28;20493;-70
2022/02/26 11:29:16;;;;;;;8.10;2.93;;;8.00;99.90;;;;;;5056052;28;20938;-69
2022/02/26 11:31:46;;;;;;;16.80;7.60;;;8.10;99.90;;;;;;5056350;28;20562;-69
2022/02/26 11:34:14;;;;;;;10.43;4.33;;;8.10;99.90;;;;;;5056153;28;20454;-67
2022/02/26 11:36:52;;;;;;;10.40;4.57;;;8.20;99.90;;;;;;5056054;28;20491;-70
2022/02/26 11:39:24;;;;;;;6.00;3.30;;;8.30;99.90;;;;;;5056080;28;20443;-68
2022/02/26 11:42:36;;;;;;;13.83;4.90;;;8.30;99.90;;;;;;5055582;28;20483;-68
2022/02/26 11:45:06;;;;;;;6.00;2.50;;;8.40;99.90;;;;;;5055429;28;20444;-68
2022/02/26 11:47:40;;;;;;;7.93;2.90;;;8.40;99.90;;;;;;5055840;28;20482;-69
2022/02/26 11:50:10;;;;;;;8.00;2.20;;;8.40;99.90;;;;;;5056048;28;20459;-68
2022/02/26 11:52:59;;;;;;;7.20;2.77;;;8.40;99.90;;;;;;5055389;28;20474;-71
2022/02/26 11:55:44;;;;;;;6.80;2.57;;;8.50;99.90;;;;;;5050922;28;20469;-70
2022/02/26 11:58:15;;;;;;;5.77;3.20;;;8.50;99.90;;;;;;5056063;28;20776;-70
2022/02/26 12:00:44;;;;;;;5.70;2.30;;;8.50;99.90;;;;;;5055411;28;20531;-70
2022/02/26 12:03:49;;;;;;;7.13;3.17;;;8.50;99.90;;;;;;5055267;28;20477;-71
2022/02/26 12:06:39;;;;;;;11.33;3.50;;;8.40;99.90;;;;;;5024975;28;20462;-72
2022/02/26 12:09:10;;;;;;;11.77;3.30;;;8.40;99.90;;;;;;5055547;28;20435;-70
2022/02/26 12:11:43;;;;;;;11.00;3.47;;;8.30;99.90;;;;;;5055173;28;20478;-70
2022/02/26 12:14:26;;;;;;;8.07;2.70;;;8.20;99.90;;;;;;5058092;28;20440;-70
2022/02/26 12:16:57;;;;;;;8.83;2.30;;;8.20;99.90;;;;;;5059076;28;20467;-71
2022/02/26 12:19:26;;;;;;;6.97;2.07;;;8.20;99.90;;;;;;5057263;28;20731;-70
2022/02/26 12:21:58;;;;;;;5.40;2.37;;;8.20;99.90;;;;;;5055839;28;20463;-71
2022/02/26 12:24:27;;;;;;;5.93;2.73;;;8.30;99.90;;;;;;5055523;28;20443;-70
2022/02/26 12:27:09;;;;;;;7.07;2.30;;;8.40;99.90;;;;;;5055677;28;20459;-70
2022/02/26 12:29:54;;;;;;;7.10;1.57;;;8.50;99.90;;;;;;5053696;28;20455;-70
2022/02/26 12:32:23;;;;;;;4.23;1.83;;;8.60;99.90;;;;;;5057181;28;20494;-70
2022/02/26 12:34:58;;;;;;;5.47;2.23;;;8.70;99.90;;;;;;5058061;28;20459;-70
2022/02/26 12:37:27;;;;;;;8.50;1.97;;;8.70;99.90;;;;;;5056737;28;20435;-70
2022/02/26 12:39:58;;;;;;;3.70;1.97;;;8.80;99.90;;;;;;5055118;28;20460;-71
2022/02/26 12:42:26;;;;;;;6.33;2.00;;;8.80;99.90;;;;;;5054539;28;20471;-70
2022/02/26 12:44:56;;;;;;;6.63;2.10;;;8.90;99.90;;;;;;5055222;28;20470;-70
2022/02/26 12:47:25;;;;;;;5.20;2.00;;;8.90;99.90;;;;;;5054926;28;20474;-70
2022/02/26 12:49:53;;;;;;;2.43;1.30;;;8.90;99.90;;;;;;5057678;28;20455;-70
2022/02/26 12:52:20;;;;;;;5.90;2.47;;;8.90;99.90;;;;;;5055918;28;20483;-71
2022/02/26 12:54:47;;;;;;;6.63;2.10;;;8.80;99.90;;;;;;5055088;28;20744;-71
2022/02/26 12:57:14;;;;;;;5.57;1.90;;;8.80;99.90;;;;;;5054458;28;20796;-70